createdAt,value
2023-02-23T00:01:43.224Z,25.02
2023-02-23T00:04:10.866Z,24.52
2023-02-23T00:06:39.064Z,25.30
2023-02-23T00:09:12.184Z,26.07
2023-02-23T00:11:39.840Z,24.55
2023-02-23T00:14:09.321Z,25.17
2023-02-23T00:16:37.481Z,25.83
2023-02-23T00:19:07.948Z,26.73
2023-02-23T00:21:35.898Z,26.38
2023-02-23T00:24:06.232Z,25.95
2023-02-23T00:26:35.249Z,27.60
2023-02-23T00:29:04.261Z,24.70
2023-02-23T00:31:33.984Z,26.15
2023-02-23T00:34:03.499Z,24.92
2023-02-23T00:36:34.566Z,25.57
2023-02-23T00:39:16.830Z,26.40
2023-02-23T00:41:44.514Z,26.17
2023-02-23T00:44:12.134Z,26.40
2023-02-23T00:46:41.972Z,25.92
2023-02-23T00:49:11.098Z,25.67
2023-02-23T00:51:39.252Z,24.95
2023-02-23T00:54:08.152Z,25.40
2023-02-23T00:56:36.015Z,26.00
2023-02-23T00:59:03.670Z,26.65
2023-02-23T01:01:31.360Z,26.67
2023-02-23T01:04:00.278Z,25.83
2023-02-23T01:06:27.840Z,25.30
2023-02-23T01:08:57.074Z,25.65
2023-02-23T01:11:27.883Z,25.63
2023-02-23T01:13:58.182Z,26.60
2023-02-23T01:16:28.452Z,24.67
2023-02-23T01:18:57.027Z,25.90
2023-02-23T01:21:27.708Z,26.80
2023-02-23T01:23:55.614Z,26.85
2023-02-23T01:26:25.285Z,25.17
2023-02-23T01:28:54.125Z,25.20
2023-02-23T01:31:23.404Z,25.52
2023-02-23T01:33:54.484Z,25.02
2023-02-23T01:36:23.048Z,25.48
2023-02-23T01:38:55.175Z,25.45
2023-02-23T01:41:22.833Z,24.67
2023-02-23T01:43:58.720Z,25.80
2023-02-23T01:46:26.310Z,25.33
2023-02-23T01:48:56.408Z,25.60
2023-02-23T01:51:26.584Z,25.37
2023-02-23T01:53:58.724Z,25.25
2023-02-23T01:56:29.126Z,25.83
2023-02-23T01:58:59.026Z,25.85
2023-02-23T02:01:27.712Z,25.15
2023-02-23T02:03:56.657Z,26.08
2023-02-23T02:06:28.749Z,25.98
2023-02-23T02:09:06.166Z,25.33
2023-02-23T02:11:37.191Z,25.58
2023-02-23T02:14:12.850Z,25.02
2023-02-23T02:17:04.148Z,25.02
2023-02-23T02:20:30.516Z,25.35
2023-02-23T02:23:18.054Z,25.20
2023-02-23T02:25:57.886Z,24.67
2023-02-23T02:28:32.729Z,26.48
2023-02-23T02:31:30.103Z,24.17
2023-02-23T02:34:36.995Z,23.83
2023-02-23T02:37:21.962Z,24.03
2023-02-23T02:40:15.355Z,24.10
2023-02-23T02:42:52.590Z,24.23
2023-02-23T02:45:25.904Z,24.67
2023-02-23T02:47:57.985Z,24.63
2023-02-23T02:50:31.335Z,23.90
2023-02-23T02:53:04.232Z,23.35
2023-02-23T02:55:35.180Z,24.02
2023-02-23T02:58:03.750Z,22.85
2023-02-23T03:00:50.160Z,22.40
2023-02-23T03:03:48.752Z,23.27
2023-02-23T03:06:34.006Z,23.90
2023-02-23T03:09:26.632Z,24.13
2023-02-23T03:12:21.015Z,24.05
2023-02-23T03:15:12.277Z,24.70
2023-02-23T03:18:03.154Z,27.03
2023-02-23T03:20:56.465Z,25.42
2023-02-23T03:23:44.813Z,26.53
2023-02-23T03:26:33.137Z,26.55
2023-02-23T03:29:21.607Z,27.02
2023-02-23T03:32:09.658Z,26.73
2023-02-23T03:34:59.209Z,28.02
2023-02-23T03:37:47.124Z,27.15
2023-02-23T03:40:36.641Z,27.07
2023-02-23T03:43:25.294Z,27.65
2023-02-23T03:46:11.011Z,28.02
2023-02-23T03:48:56.817Z,27.57
2023-02-23T03:51:44.304Z,27.45
2023-02-23T03:54:33.192Z,29.23
2023-02-23T03:57:22.064Z,27.95
2023-02-23T04:00:12.090Z,28.67
2023-02-23T04:02:58.449Z,28.45
2023-02-23T04:05:43.583Z,29.95
2023-02-23T04:08:32.853Z,29.30
2023-02-23T04:11:21.661Z,29.38
2023-02-23T04:13:50.993Z,27.88
2023-02-23T04:16:19.263Z,27.38
2023-02-23T04:18:46.912Z,28.08
2023-02-23T04:21:14.625Z,27.73
2023-02-23T04:23:43.553Z,28.30
2023-02-23T04:26:11.154Z,28.05
2023-02-23T04:28:38.893Z,28.75
2023-02-23T04:31:06.900Z,27.40
2023-02-23T04:33:35.941Z,27.92
2023-02-23T04:36:03.658Z,28.40
2023-02-23T04:38:31.439Z,28.17
2023-02-23T04:40:59.047Z,27.23
2023-02-23T04:43:26.648Z,27.38
2023-02-23T04:45:54.435Z,27.33
2023-02-23T04:48:25.016Z,28.10
2023-02-23T04:50:54.676Z,26.60
2023-02-23T04:53:22.294Z,25.93
2023-02-23T04:55:49.856Z,25.10
2023-02-23T04:58:17.562Z,26.60
2023-02-23T05:00:45.234Z,25.95
2023-02-23T05:03:12.918Z,26.83
2023-02-23T05:05:40.594Z,25.60
2023-02-23T05:08:09.606Z,26.42
2023-02-23T05:10:40.078Z,26.92
2023-02-23T05:13:07.952Z,25.50
2023-02-23T05:15:35.603Z,25.52
2023-02-23T05:18:03.237Z,25.23
2023-02-23T05:20:30.864Z,25.88
2023-02-23T05:22:58.619Z,25.30
2023-02-23T05:25:27.579Z,23.88
2023-02-23T05:27:55.160Z,23.80
2023-02-23T05:30:23.030Z,23.35
2023-02-23T05:32:51.497Z,22.98
2023-02-23T05:35:19.228Z,21.98
2023-02-23T05:37:46.818Z,22.80
2023-02-23T05:40:15.152Z,22.55
2023-02-23T05:42:44.759Z,22.63
2023-02-23T05:45:12.524Z,21.58
2023-02-23T05:47:40.151Z,21.00
2023-02-23T05:50:09.959Z,20.87
2023-02-23T05:52:41.549Z,19.83
2023-02-23T05:55:11.545Z,19.40
2023-02-23T05:57:40.890Z,18.27
2023-02-23T06:00:11.925Z,16.87
2023-02-23T06:02:39.997Z,16.27
2023-02-23T06:05:08.586Z,16.17
2023-02-23T06:07:36.287Z,15.55
2023-02-23T06:10:04.081Z,14.75
2023-02-23T06:12:31.775Z,13.38
2023-02-23T06:14:59.425Z,13.00
2023-02-23T06:17:28.383Z,13.00
2023-02-23T06:19:56.010Z,12.67
2023-02-23T06:22:23.556Z,12.00
2023-02-23T06:24:51.324Z,12.60
2023-02-23T06:27:18.922Z,12.23
2023-02-23T06:29:46.520Z,12.18
2023-02-23T06:32:14.256Z,12.68
2023-02-23T06:34:44.815Z,12.10
2023-02-23T06:37:12.840Z,12.65
2023-02-23T06:39:40.496Z,13.75
2023-02-23T06:42:08.072Z,13.98
2023-02-23T06:44:37.156Z,16.77
2023-02-23T06:47:05.641Z,17.63
2023-02-23T06:49:33.485Z,18.30
2023-02-23T06:52:02.509Z,17.75
2023-02-23T06:54:30.160Z,18.23
2023-02-23T06:56:57.752Z,18.45
2023-02-23T06:59:25.403Z,17.65
2023-02-23T07:01:53.427Z,17.42
2023-02-23T07:04:21.033Z,18.05
2023-02-23T07:06:48.883Z,16.90
2023-02-23T07:09:17.857Z,16.80
2023-02-23T07:11:45.720Z,15.55
2023-02-23T07:14:21.557Z,14.88
2023-02-23T07:16:52.922Z,15.82
2023-02-23T07:19:20.609Z,16.85
2023-02-23T07:21:48.349Z,15.88
2023-02-23T07:24:17.374Z,16.30
2023-02-23T07:26:47.271Z,15.23
2023-02-23T07:29:14.962Z,14.38
2023-02-23T07:31:42.754Z,15.68
2023-02-23T07:34:10.863Z,15.57
2023-02-23T07:36:38.551Z,15.20
2023-02-23T07:39:06.603Z,15.80
2023-02-23T07:41:35.612Z,15.35
2023-02-23T07:44:03.285Z,16.17
2023-02-23T07:46:30.968Z,15.73
2023-02-23T07:48:58.700Z,17.33
2023-02-23T07:51:26.326Z,18.95
2023-02-23T07:53:55.050Z,21.87
2023-02-23T07:56:22.932Z,23.33
2023-02-23T07:58:51.961Z,21.73
2023-02-23T08:01:19.866Z,23.08
2023-02-23T08:03:49.660Z,23.30
2023-02-23T08:06:17.509Z,26.35
2023-02-23T08:08:45.218Z,25.20
2023-02-23T08:11:13.089Z,26.70
2023-02-23T08:13:41.457Z,27.17
2023-02-23T08:16:12.457Z,28.30
2023-02-23T08:18:40.167Z,26.58
2023-02-23T08:21:07.766Z,28.60
2023-02-23T08:23:36.126Z,27.92
2023-02-23T08:26:03.874Z,29.10
2023-02-23T08:28:31.983Z,28.10
2023-02-23T08:31:00.272Z,27.63
2023-02-23T08:33:29.231Z,26.70
2023-02-23T08:36:02.710Z,26.30
2023-02-23T08:38:30.562Z,26.95
2023-02-23T08:41:01.221Z,24.92
2023-02-23T08:43:28.989Z,26.48
2023-02-23T08:45:56.707Z,25.08
2023-02-23T08:48:24.398Z,25.38
2023-02-23T08:50:57.788Z,25.55
2023-02-23T08:53:25.670Z,25.70
2023-02-23T08:55:57.133Z,25.52
2023-02-23T08:58:24.961Z,22.30
2023-02-23T09:00:53.117Z,23.75
2023-02-23T09:03:21.240Z,23.23
2023-02-23T09:05:48.884Z,21.95
2023-02-23T09:08:17.815Z,21.73
2023-02-23T09:10:45.773Z,22.25
2023-02-23T09:13:13.959Z,21.55
2023-02-23T09:15:41.754Z,19.73
2023-02-23T09:18:13.391Z,20.98
2023-02-23T09:20:42.650Z,20.13
2023-02-23T09:23:10.307Z,21.70
2023-02-23T09:25:43.781Z,21.13
2023-02-23T09:28:12.928Z,22.30
2023-02-23T09:30:41.612Z,21.83
2023-02-23T09:33:09.493Z,22.60
2023-02-23T09:35:37.628Z,23.40
2023-02-23T09:38:06.738Z,22.08
2023-02-23T09:40:39.164Z,20.48
2023-02-23T09:43:12.712Z,19.80
2023-02-23T09:45:42.119Z,20.33
2023-02-23T09:48:15.564Z,20.50
2023-02-23T09:50:45.775Z,20.30
2023-02-23T09:53:33.972Z,20.95
2023-02-23T09:56:02.256Z,19.75
2023-02-23T09:58:32.952Z,22.20
2023-02-23T10:01:34.579Z,21.60
2023-02-23T10:04:07.191Z,23.27
2023-02-23T10:06:35.222Z,20.33
2023-02-23T10:09:14.457Z,19.15
2023-02-23T10:11:46.583Z,19.27
2023-02-23T10:14:25.922Z,19.33
2023-02-23T10:17:04.983Z,18.35
2023-02-23T10:19:38.324Z,18.13
2023-02-23T10:22:07.434Z,18.50
2023-02-23T10:24:38.295Z,18.63
2023-02-23T10:27:10.792Z,19.40
2023-02-23T10:29:42.631Z,19.67
2023-02-23T10:32:16.792Z,19.85
2023-02-23T10:34:46.892Z,20.58
2023-02-23T10:37:15.900Z,22.30
2023-02-23T10:39:43.499Z,22.20
2023-02-23T10:42:15.927Z,22.42
2023-02-23T10:44:45.825Z,20.55
2023-02-23T10:47:16.332Z,21.60
2023-02-23T10:49:46.673Z,21.52
2023-02-23T10:52:16.239Z,26.35
2023-02-23T10:54:47.565Z,25.37
2023-02-23T10:57:22.840Z,27.95
2023-02-23T11:00:09.172Z,27.88
2023-02-23T11:02:37.599Z,27.25
2023-02-23T11:05:06.907Z,28.60
2023-02-23T11:07:35.140Z,27.33
2023-02-23T11:10:26.139Z,27.13
2023-02-23T11:12:53.842Z,27.05
2023-02-23T11:15:46.324Z,26.37
2023-02-23T11:18:21.125Z,25.00
2023-02-23T11:20:49.415Z,24.50
2023-02-23T11:23:19.866Z,23.00
2023-02-23T11:25:49.508Z,22.55
2023-02-23T11:28:20.781Z,22.00
2023-02-23T11:30:50.317Z,22.92
2023-02-23T11:33:21.488Z,22.50
2023-02-23T11:35:49.098Z,23.92
2023-02-23T11:38:18.074Z,24.48
2023-02-23T11:40:59.972Z,24.27
2023-02-23T11:43:27.635Z,25.60
2023-02-23T11:45:58.203Z,25.85
2023-02-23T11:48:28.595Z,23.25
2023-02-23T11:50:57.148Z,22.05
2023-02-23T11:53:29.935Z,21.52
2023-02-23T11:56:04.421Z,20.58
2023-02-23T11:58:36.347Z,18.42
2023-02-23T12:01:12.066Z,10.68
2023-02-23T12:03:43.962Z,3.10
2023-02-23T12:06:11.974Z,1.52
2023-02-23T12:08:43.258Z,1.58
2023-02-23T12:11:14.075Z,1.85
2023-02-23T12:13:43.706Z,1.50
2023-02-23T12:16:19.123Z,2.35
2023-02-23T12:18:49.956Z,2.58
2023-02-23T12:21:28.457Z,2.10
2023-02-23T12:24:05.004Z,2.05
2023-02-23T12:26:35.105Z,2.85
2023-02-23T12:29:11.429Z,2.38
2023-02-23T12:31:45.364Z,2.58
2023-02-23T12:34:15.724Z,2.50
2023-02-23T12:36:45.641Z,2.85
2023-02-23T12:39:18.502Z,2.92
2023-02-23T12:41:52.382Z,3.10
2023-02-23T12:44:29.837Z,2.75
2023-02-23T12:47:03.579Z,2.92
2023-02-23T12:49:34.098Z,2.65
2023-02-23T12:52:08.442Z,2.25
2023-02-23T12:54:36.437Z,2.13
2023-02-23T12:57:13.673Z,2.40
2023-02-23T13:00:04.831Z,2.45
2023-02-23T13:02:39.597Z,3.65
2023-02-23T13:05:24.969Z,3.30
2023-02-23T13:08:12.445Z,3.58
2023-02-23T13:10:47.286Z,4.13
2023-02-23T13:13:24.274Z,4.40
2023-02-23T13:15:57.474Z,3.60
2023-02-23T13:18:30.302Z,3.87
2023-02-23T13:21:04.764Z,3.53
2023-02-23T13:23:37.199Z,3.60
2023-02-23T13:26:13.050Z,4.57
2023-02-23T13:28:52.280Z,4.15
2023-02-23T13:31:26.131Z,3.63
2023-02-23T13:33:57.459Z,4.32
2023-02-23T13:36:27.490Z,4.45
2023-02-23T13:39:19.769Z,3.85
2023-02-23T13:41:51.933Z,4.45
2023-02-23T13:44:23.554Z,4.28
2023-02-23T13:46:54.319Z,4.20
2023-02-23T13:49:36.746Z,4.07
2023-02-23T13:52:12.962Z,4.22
2023-02-23T13:54:53.004Z,3.90
2023-02-23T13:57:23.518Z,3.67
2023-02-23T13:59:52.291Z,3.88
2023-02-23T14:02:33.164Z,4.38
2023-02-23T14:05:05.702Z,3.95
2023-02-23T14:07:34.633Z,4.38
2023-02-23T14:10:06.521Z,4.07
2023-02-23T14:12:35.769Z,4.60
2023-02-23T14:15:37.775Z,4.70
2023-02-23T14:18:06.734Z,4.43
2023-02-23T14:20:46.075Z,4.50
2023-02-23T14:23:38.760Z,4.20
2023-02-23T14:26:38.951Z,4.68
2023-02-23T14:29:24.371Z,3.90
2023-02-23T14:32:00.186Z,3.55
2023-02-23T14:34:49.187Z,3.97
2023-02-23T14:37:26.283Z,3.70
2023-02-23T14:39:56.461Z,3.55
2023-02-23T14:42:25.962Z,4.20
2023-02-23T14:44:54.705Z,4.07
2023-02-23T14:47:23.506Z,3.67
2023-02-23T14:49:55.127Z,3.95
2023-02-23T14:52:25.959Z,3.15
2023-02-23T14:55:05.417Z,2.95
2023-02-23T14:57:37.027Z,3.35
2023-02-23T15:00:12.669Z,3.55
2023-02-23T15:02:53.633Z,3.67
2023-02-23T15:05:24.529Z,2.83
2023-02-23T15:07:54.457Z,3.25
2023-02-23T15:10:27.340Z,3.15
2023-02-23T15:12:55.342Z,3.08
2023-02-23T15:15:25.648Z,3.45
2023-02-23T15:17:55.272Z,3.42
2023-02-23T15:20:28.675Z,2.75
2023-02-23T15:22:59.273Z,2.80
2023-02-23T15:25:35.132Z,2.90
2023-02-23T15:28:11.621Z,2.72
2023-02-23T15:30:46.559Z,2.88
2023-02-23T15:33:16.567Z,2.55
2023-02-23T15:35:47.691Z,2.45
2023-02-23T15:38:41.704Z,3.13
2023-02-23T15:41:10.395Z,2.97
2023-02-23T15:43:39.776Z,2.28
2023-02-23T15:46:07.533Z,2.90
2023-02-23T15:48:42.625Z,3.03
2023-02-23T15:51:22.954Z,1.95
2023-02-23T15:53:52.084Z,2.95
2023-02-23T15:56:24.457Z,4.30
2023-02-23T15:58:57.214Z,3.03
2023-02-23T16:01:26.306Z,2.30
2023-02-23T16:04:00.810Z,2.80
2023-02-23T16:06:34.114Z,3.40
2023-02-23T16:09:20.567Z,2.33
2023-02-23T16:11:50.168Z,2.75
2023-02-23T16:14:19.960Z,2.20
2023-02-23T16:17:01.454Z,3.00
2023-02-23T16:19:40.697Z,3.05
2023-02-23T16:22:18.388Z,3.65
2023-02-23T16:24:52.271Z,2.27
2023-02-23T16:27:22.235Z,2.67
2023-02-23T16:30:00.252Z,2.78
2023-02-23T16:32:35.149Z,2.63
2023-02-23T16:35:09.063Z,2.55
2023-02-23T16:37:50.638Z,2.00
2023-02-23T16:40:19.917Z,1.95
2023-02-23T16:42:47.521Z,1.87
2023-02-23T16:45:16.327Z,1.60
2023-02-23T16:47:47.671Z,1.80
2023-02-23T16:50:20.974Z,1.80
2023-02-23T16:52:52.805Z,1.70
2023-02-23T16:55:25.844Z,1.95
2023-02-23T16:57:55.734Z,1.70
2023-02-23T17:00:25.463Z,1.60
2023-02-23T17:02:53.267Z,1.77
2023-02-23T17:05:23.942Z,1.52
2023-02-23T17:07:52.431Z,2.20
2023-02-23T17:10:26.788Z,1.83
2023-02-23T17:12:55.468Z,1.92
2023-02-23T17:15:24.812Z,2.38
2023-02-23T17:17:54.679Z,2.17
2023-02-23T17:20:22.284Z,1.30
2023-02-23T17:22:50.678Z,2.05
2023-02-23T17:25:18.523Z,1.58
2023-02-23T17:27:47.585Z,1.50
2023-02-23T17:30:16.048Z,1.60
2023-02-23T17:32:44.015Z,1.42
2023-02-23T17:35:12.221Z,1.70
2023-02-23T17:37:40.028Z,1.30
2023-02-23T17:40:09.313Z,0.90
2023-02-23T17:42:37.025Z,1.50
2023-02-23T17:45:07.839Z,2.85
2023-02-23T17:47:38.491Z,1.42
2023-02-23T17:50:06.854Z,1.55
2023-02-23T17:52:34.556Z,1.67
2023-02-23T17:55:02.351Z,1.58
2023-02-23T17:57:30.445Z,1.63
2023-02-23T17:59:58.332Z,1.08
2023-02-23T18:02:27.451Z,2.22
2023-02-23T18:04:55.155Z,1.50
2023-02-23T18:07:22.842Z,2.30
2023-02-23T18:09:50.967Z,1.60
2023-02-23T18:12:19.540Z,1.83
2023-02-23T18:14:47.853Z,1.55
2023-02-23T18:17:16.527Z,2.75
2023-02-23T18:19:47.024Z,2.13
2023-02-23T18:22:15.665Z,3.17
2023-02-23T18:24:43.222Z,2.00
2023-02-23T18:27:12.707Z,2.40
2023-02-23T18:29:40.768Z,3.15
2023-02-23T18:32:09.022Z,2.08
2023-02-23T18:34:37.479Z,2.10
2023-02-23T18:37:09.790Z,2.42
2023-02-23T18:39:37.442Z,2.50
2023-02-23T18:42:05.434Z,3.53
2023-02-23T18:44:35.172Z,1.88
2023-02-23T18:47:02.958Z,2.40
2023-02-23T18:49:30.502Z,4.00
2023-02-23T18:51:59.028Z,2.63
2023-02-23T18:54:28.028Z,2.13
2023-02-23T18:56:55.836Z,2.08
2023-02-23T18:59:23.551Z,2.25
2023-02-23T19:01:51.221Z,2.53
2023-02-23T19:04:18.846Z,2.40
2023-02-23T19:06:47.424Z,2.58
2023-02-23T19:09:19.552Z,2.65
2023-02-23T19:11:50.580Z,2.38
2023-02-23T19:14:19.865Z,2.90
2023-02-23T19:16:49.506Z,2.30
2023-02-23T19:19:17.317Z,2.27
2023-02-23T19:21:45.123Z,2.70
2023-02-23T19:24:12.777Z,2.35
2023-02-23T19:26:40.763Z,2.78
2023-02-23T19:29:09.839Z,3.20
2023-02-23T19:31:37.848Z,2.63
2023-02-23T19:34:08.755Z,2.70
2023-02-23T19:36:36.926Z,2.60
2023-02-23T19:39:10.317Z,1.80
2023-02-23T19:41:39.327Z,1.65
2023-02-23T19:44:07.149Z,1.63
2023-02-23T19:46:36.700Z,1.60
2023-02-23T19:49:04.770Z,2.15
2023-02-23T19:51:32.958Z,2.53
2023-02-23T19:54:00.874Z,1.90
2023-02-23T19:56:30.107Z,2.05
2023-02-23T19:58:58.430Z,3.30
2023-02-23T20:01:27.782Z,3.17
2023-02-23T20:04:01.941Z,2.38
2023-02-23T20:06:31.978Z,2.72
2023-02-23T20:09:00.269Z,2.95
2023-02-23T20:11:28.231Z,2.25
2023-02-23T20:13:57.288Z,2.30
2023-02-23T20:16:29.228Z,1.83
2023-02-23T20:18:58.841Z,1.63
2023-02-23T20:21:27.752Z,1.60
2023-02-23T20:23:56.137Z,1.95
2023-02-23T20:26:26.361Z,2.58
2023-02-23T20:28:54.450Z,1.42
2023-02-23T20:31:25.637Z,1.40
2023-02-23T20:33:54.228Z,1.65
2023-02-23T20:36:24.114Z,2.03
2023-02-23T20:38:52.054Z,2.10
2023-02-23T20:41:20.393Z,2.08
2023-02-23T20:43:48.315Z,1.80
2023-02-23T20:46:17.545Z,3.72
2023-02-23T20:48:45.967Z,1.83
2023-02-23T20:51:15.079Z,1.40
2023-02-23T20:53:46.517Z,1.65
2023-02-23T20:56:15.204Z,2.40
2023-02-23T20:58:42.887Z,4.13
2023-02-23T21:01:23.153Z,1.90
2023-02-23T21:03:52.224Z,2.30
2023-02-23T21:06:20.550Z,2.20
2023-02-23T21:08:50.204Z,2.22
2023-02-23T21:13:45.923Z,1.30
2023-02-23T21:16:14.843Z,1.60
2023-02-23T21:18:42.986Z,1.90
2023-02-23T21:21:10.857Z,1.42
2023-02-23T21:23:39.814Z,1.98
2023-02-23T21:26:14.183Z,1.55
2023-02-23T21:28:42.962Z,3.65
2023-02-23T21:31:12.439Z,1.70
2023-02-23T21:33:40.898Z,1.40
2023-02-23T21:36:10.392Z,1.08
2023-02-23T21:38:38.481Z,1.58
2023-02-23T21:41:08.108Z,2.00
2023-02-23T21:46:07.594Z,1.50
2023-02-23T21:48:35.303Z,1.70
2023-02-23T21:51:04.111Z,1.92
2023-02-23T21:53:32.175Z,2.43
2023-02-23T21:55:59.789Z,2.38
2023-02-23T21:58:28.753Z,2.38
2023-02-23T22:00:56.305Z,2.38
2023-02-23T22:03:23.837Z,2.13
2023-02-23T22:05:51.427Z,2.00
2023-02-23T22:08:19.119Z,1.60
2023-02-23T22:10:46.886Z,1.45
2023-02-23T22:13:14.774Z,1.60
2023-02-23T22:15:43.954Z,1.45
2023-02-23T22:18:14.121Z,1.77
2023-02-23T22:20:44.291Z,1.42
2023-02-23T22:23:12.064Z,2.90
2023-02-23T22:25:39.840Z,1.10
2023-02-23T22:28:10.614Z,1.63
2023-02-23T22:30:38.360Z,0.90
2023-02-23T22:33:07.621Z,1.10
2023-02-23T22:35:35.522Z,1.17
2023-02-23T22:38:04.768Z,1.00
2023-02-23T22:40:32.525Z,0.88
2023-02-23T22:43:00.296Z,0.52
2023-02-23T22:45:28.139Z,0.70
2023-02-23T22:48:01.443Z,0.70
2023-02-23T22:50:30.612Z,0.40
2023-02-23T22:52:58.361Z,0.65
2023-02-23T22:55:28.001Z,0.40
2023-02-23T22:57:55.996Z,0.50
2023-02-23T23:00:24.318Z,0.47
2023-02-23T23:02:52.238Z,0.40
2023-02-23T23:05:20.088Z,0.57
2023-02-23T23:07:49.264Z,0.50
2023-02-23T23:10:18.040Z,0.70
2023-02-23T23:12:46.665Z,0.70
2023-02-23T23:15:17.069Z,0.60
2023-02-23T23:17:48.184Z,0.70
2023-02-23T23:20:18.820Z,0.60
2023-02-23T23:22:46.671Z,0.90
2023-02-23T23:25:15.855Z,0.50
2023-02-23T23:27:45.922Z,0.82
2023-02-23T23:30:14.537Z,0.57
2023-02-23T23:32:42.514Z,0.50
2023-02-23T23:35:13.605Z,0.70
2023-02-23T23:37:41.565Z,0.35
2023-02-23T23:40:14.409Z,0.50
2023-02-23T23:42:46.084Z,0.95
2023-02-23T23:45:16.238Z,0.43
2023-02-23T23:47:44.874Z,0.52
2023-02-23T23:50:13.757Z,1.02
2023-02-23T23:52:43.761Z,0.70
2023-02-23T23:55:14.458Z,0.30
2023-02-23T23:57:44.382Z,0.77
